Time;durP1;ratioP1;P1;durP2;ratioP2;P2;SDS_P1;SDS_P2;PMS_P1;PMS_P2;Temp;Humidity;BMP_temperature;BMP_pressure;BME280_temperature;BME280_humidity;BME280_pressure;Samples;Min_cycle;Max_cycle;Signal;HPM_P1;HPM_P2
2022/04/05 00:01:39;;;;;;;28.63;26.33;;;;;;;22.32;29.45;94830.38;6084380;28;103288;-60
2022/04/05 00:04:41;;;;;;;26.77;24.63;;;;;;;22.27;29.15;94827.88;6086375;28;104661;-60
2022/04/05 00:07:43;;;;;;;27.00;24.80;;;;;;;22.31;29.54;94828.03;6080603;28;104245;-60
2022/04/05 00:10:45;;;;;;;27.07;24.87;;;;;;;22.32;29.21;94830.38;6085147;28;103995;-61
2022/04/05 00:13:47;;;;;;;26.47;24.27;;;;;;;22.31;29.22;94831.47;6086947;28;103004;-60
2022/04/05 00:16:49;;;;;;;26.40;24.30;;;;;;;22.30;29.42;94827.25;6085308;28;103380;-60
2022/04/05 00:19:50;;;;;;;27.50;25.30;;;;;;;22.31;29.08;94828.81;6070266;28;102939;-60
2022/04/05 00:22:53;;;;;;;24.43;22.53;;;;;;;22.29;29.18;94825.69;6085479;28;103302;-61
2022/04/05 00:25:54;;;;;;;24.90;22.90;;;;;;;22.30;29.27;94821.13;6085801;28;104306;-60
2022/04/05 00:28:56;;;;;;;25.77;23.53;;;;;;;22.24;29.51;94809.06;6080135;28;103331;-61
2022/04/05 00:31:58;;;;;;;25.27;23.17;;;;;;;22.28;29.25;94818.00;6084848;28;104231;-60
2022/04/05 00:35:00;;;;;;;23.37;21.47;;;;;;;22.29;29.24;94814.22;6085434;28;103617;-60
2022/04/05 00:38:01;;;;;;;23.70;21.80;;;;;;;22.29;29.49;94814.22;6083076;28;103338;-60
2022/04/05 00:41:03;;;;;;;24.30;22.40;;;;;;;22.28;29.15;94807.34;6081194;28;104314;-60
2022/04/05 00:44:05;;;;;;;23.37;21.57;;;;;;;22.29;29.38;94808.91;6085717;28;103033;-60
2022/04/05 00:47:14;;;;;;;23.33;21.43;;;;;;;22.23;29.53;94800.28;6083145;28;103231;-61
2022/04/05 00:50:21;;;;;;;23.27;21.40;;;;;;;22.29;29.65;94800.91;6084542;28;104268;-61
2022/04/05 00:53:27;;;;;;;21.47;19.77;;;;;;;22.24;29.38;94801.06;6079088;28;104269;-61
2022/04/05 00:56:32;;;;;;;20.40;18.80;;;;;;;22.27;29.23;94805.78;6085368;28;104238;-61
2022/04/05 00:59:35;;;;;;;21.40;19.60;;;;;;;22.29;29.69;94800.91;6083424;28;103211;-61
2022/04/05 01:02:38;;;;;;;21.40;19.60;;;;;;;22.28;29.12;94799.34;6080784;28;103426;-61
2022/04/05 01:05:41;;;;;;;20.60;19.00;;;;;;;22.27;29.25;94797.78;6085114;28;103247;-61
2022/04/05 01:08:47;;;;;;;20.20;18.53;;;;;;;22.26;29.49;94791.66;6082829;28;103304;-60
2022/04/05 01:11:49;;;;;;;20.93;19.23;;;;;;;22.26;29.23;94788.22;6085305;28;104035;-61
2022/04/05 01:14:52;;;;;;;19.53;17.93;;;;;;;22.23;29.07;94783.50;6079747;28;103450;-61
2022/04/05 01:17:55;;;;;;;19.63;18.07;;;;;;;22.25;29.33;94786.63;6087144;28;103780;-60
2022/04/05 01:20:57;;;;;;;20.73;19.03;;;;;;;22.26;29.51;94790.88;6086434;28;103971;-60
2022/04/05 01:24:08;;;;;;;19.17;17.67;;;;;;;22.26;29.50;94788.22;6078501;28;104197;-61
2022/04/05 01:27:17;;;;;;;19.93;18.33;;;;;;;22.25;29.32;94783.97;6085485;28;104116;-60
2022/04/05 01:30:19;;;;;;;17.73;16.37;;;;;;;22.24;29.02;94787.75;6086755;28;104007;-61
2022/04/05 01:33:21;;;;;;;17.97;16.57;;;;;;;22.24;29.55;94791.19;6086226;28;103493;-60
2022/04/05 01:36:23;;;;;;;17.87;16.37;;;;;;;22.23;29.51;94794.94;6080931;28;103260;-61
2022/04/05 01:39:28;;;;;;;17.03;15.60;;;;;;;22.24;29.17;94793.06;6088814;28;103098;-61
2022/04/05 01:42:31;;;;;;;18.30;16.80;;;;;;;22.22;29.25;94788.06;6089088;28;103288;-60
2022/04/05 01:45:34;;;;;;;17.60;16.20;;;;;;;22.25;28.99;94790.09;6086404;28;103108;-60
2022/04/05 01:48:36;;;;;;;16.93;15.53;;;;;;;22.24;29.27;94791.19;6085196;28;103157;-60
2022/04/05 01:51:37;;;;;;;16.20;14.70;;;;;;;22.24;29.42;94795.72;6087206;28;103336;-60
2022/04/05 01:54:39;;;;;;;17.20;15.70;;;;;;;22.23;29.06;94794.16;6071325;28;104244;-61
2022/04/05 01:57:41;;;;;;;16.70;15.37;;;;;;;22.21;29.03;94791.03;6083101;28;103400;-60
2022/04/05 02:00:43;;;;;;;15.60;14.30;;;;;;;22.23;29.18;94786.16;6087209;28;103153;-60
2022/04/05 02:03:45;;;;;;;14.57;13.47;;;;;;;22.24;29.45;94782.41;6086921;28;103155;-61
2022/04/05 02:06:47;;;;;;;14.70;13.60;;;;;;;22.23;28.87;94778.19;6087930;28;103014;-60
2022/04/05 02:09:49;;;;;;;14.27;13.10;;;;;;;22.19;28.91;94771.91;6084281;28;104080;-60
2022/04/05 02:12:52;;;;;;;13.87;12.77;;;;;;;22.22;28.92;94774.72;6087077;28;103959;-60
2022/04/05 02:15:54;;;;;;;13.80;12.70;;;;;;;22.22;29.03;94777.41;6087584;28;104170;-61
2022/04/05 02:18:56;;;;;;;13.43;12.37;;;;;;;22.22;29.13;94771.28;6103327;28;103976;-60
2022/04/05 02:21:58;;;;;;;13.57;12.47;;;;;;;22.17;29.59;94758.88;6092289;28;104266;-61
2022/04/05 02:25:03;;;;;;;13.27;12.17;;;;;;;22.24;29.04;94771.75;6087758;28;104186;-61
2022/04/05 02:28:06;;;;;;;13.03;11.93;;;;;;;22.25;29.34;94762.66;6089600;28;102629;-61
2022/04/05 02:31:08;;;;;;;12.93;11.83;;;;;;;22.26;29.26;94756.22;6082594;28;103235;-60
2022/04/05 02:34:10;;;;;;;13.03;11.90;;;;;;;22.24;29.25;94739.75;6086962;28;104685;-61
2022/04/05 02:37:12;;;;;;;11.70;10.80;;;;;;;22.26;29.03;94740.22;6087439;28;103520;-61
2022/04/05 02:40:14;;;;;;;12.73;11.70;;;;;;;22.28;28.95;94754.03;6088262;28;104157;-61
2022/04/05 02:43:16;;;;;;;11.63;10.73;;;;;;;22.23;28.60;94736.31;6078713;28;104239;-61
2022/04/05 02:46:17;;;;;;;10.90;10.00;;;;;;;22.24;29.12;94743.22;6083946;28;104032;-61
2022/04/05 02:49:20;;;;;;;11.30;10.43;;;;;;;22.25;28.50;94744.00;6071651;28;103339;-60
2022/04/05 02:52:21;;;;;;;10.30;9.50;;;;;;;22.27;29.04;94742.56;6080707;28;102962;-61
2022/04/05 02:55:23;;;;;;;10.77;9.87;;;;;;;22.26;28.90;94735.69;6086783;28;103190;-61
2022/04/05 02:58:25;;;;;;;11.20;10.13;;;;;;;22.27;28.87;94736.47;6087625;28;104345;-60
2022/04/05 03:01:27;;;;;;;10.10;9.30;;;;;;;22.27;28.87;94741.78;6086968;28;104230;-61
2022/04/05 03:04:36;;;;;;;9.37;8.67;;;;;;;22.29;28.50;94737.72;6081215;28;103719;-61
2022/04/05 03:07:38;;;;;;;10.00;9.30;;;;;;;22.25;29.07;94725.34;6086873;28;104214;-61
2022/04/05 03:10:40;;;;;;;10.33;9.53;;;;;;;22.25;28.82;94725.34;6085998;28;103578;-61
2022/04/05 03:13:42;;;;;;;10.07;9.07;;;;;;;22.29;28.57;94728.94;6086470;28;103571;-61
2022/04/05 03:16:44;;;;;;;9.43;8.73;;;;;;;22.30;28.81;94733.16;6085414;28;104652;-60
2022/04/05 03:19:45;;;;;;;10.67;9.33;;;;;;;22.29;29.00;94727.06;6103733;28;103524;-62
2022/04/05 03:22:47;;;;;;;9.07;8.30;;;;;;;22.30;28.97;94728.63;6086506;28;103606;-61
2022/04/05 03:25:49;;;;;;;9.47;8.67;;;;;;;22.30;29.05;94719.84;6080821;28;103229;-61
2022/04/05 03:28:51;;;;;;;8.40;7.63;;;;;;;22.30;29.01;94719.84;6081174;28;102999;-61
2022/04/05 03:31:53;;;;;;;7.70;7.10;;;;;;;22.27;28.83;94715.13;6086247;28;103339;-61
2022/04/05 03:34:55;;;;;;;8.57;7.87;;;;;;;22.32;28.57;94725.63;6078130;28;103266;-61
2022/04/05 03:37:57;;;;;;;8.20;7.50;;;;;;;22.30;28.79;94722.50;6095182;28;104459;-61
2022/04/05 03:40:59;;;;;;;7.10;6.40;;;;;;;22.32;29.58;94725.63;6087202;28;104166;-61
2022/04/05 03:44:01;;;;;;;7.33;6.53;;;;;;;22.38;29.52;94729.72;6083970;28;103325;-61
2022/04/05 03:47:03;;;;;;;12.10;6.50;;;;;;;22.40;29.75;94728.31;6082370;28;103901;-61
2022/04/05 03:50:05;;;;;;;7.00;6.40;;;;;;;22.41;29.24;94726.44;6083556;28;103204;-62
2022/04/05 03:53:07;;;;;;;7.27;6.67;;;;;;;22.35;29.31;94725.03;6079188;28;104252;-61
2022/04/05 03:56:09;;;;;;;6.20;5.70;;;;;;;22.32;29.43;94722.97;6073973;28;104405;-61
2022/04/05 03:59:10;;;;;;;6.17;5.57;;;;;;;22.32;29.54;94723.75;6056846;28;103320;-61
2022/04/05 04:02:12;;;;;;;7.53;6.60;;;;;;;22.32;29.29;94723.75;6076318;28;103210;-64
2022/04/05 04:05:17;;;;;;;8.67;6.80;;;;;;;22.44;30.20;94723.13;6093336;28;103195;-61
2022/04/05 04:08:19;;;;;;;7.70;7.10;;;;;;;22.48;29.96;94721.38;6084494;28;103157;-61
2022/04/05 04:11:21;;;;;;;8.47;7.60;;;;;;;22.50;30.79;94729.84;6053253;28;104374;-62
2022/04/05 04:14:23;;;;;;;8.03;7.33;;;;;;;22.47;30.45;94719.81;6064337;28;104399;-61
2022/04/05 04:17:25;;;;;;;8.30;7.53;;;;;;;22.54;30.59;94736.16;6070700;28;103422;-61
2022/04/05 04:20:27;;;;;;;10.10;8.53;;;;;;;22.50;30.39;94734.41;6047828;28;103612;-61
2022/04/05 04:23:29;;;;;;;9.90;9.00;;;;;;;22.45;29.16;94723.91;6050336;28;104636;-62
2022/04/05 04:26:30;;;;;;;10.10;9.10;;;;;;;22.48;29.99;94733.94;6063032;28;103250;-62
2022/04/05 04:29:32;;;;;;;9.03;8.23;;;;;;;22.50;30.17;94729.06;6050324;28;104332;-61
2022/04/05 04:32:34;;;;;;;9.73;8.70;;;;;;;22.40;30.13;94727.53;6057553;28;108056;-61
2022/04/05 04:35:38;;;;;;;9.60;8.60;;;;;;;22.42;30.39;94728.78;6073680;28;103330;-61
2022/04/05 04:38:40;;;;;;;9.73;8.83;;;;;;;22.44;30.12;94741.00;6062093;28;103112;-61
2022/04/05 04:41:44;;;;;;;9.47;8.57;;;;;;;22.36;30.20;94738.03;6057972;28;103382;-61
2022/04/05 04:44:45;;;;;;;12.03;9.50;;;;;;;22.43;30.80;94742.88;6060734;28;103030;-61
2022/04/05 04:47:47;;;;;;;11.53;10.43;;;;;;;22.42;30.45;94742.09;6063161;28;102677;-61
2022/04/05 04:50:50;;;;;;;15.27;11.23;;;;;;;22.46;31.75;94744.13;6061430;28;103287;-61
2022/04/05 04:53:52;;;;;;;14.63;12.80;;;;;;;22.44;33.30;94738.34;6058124;28;103793;-61
2022/04/05 04:56:54;;;;;;;16.17;14.50;;;;;;;22.53;34.40;94745.25;6062798;28;103142;-61
2022/04/05 04:59:56;;;;;;;19.87;18.07;;;;;;;22.53;35.61;94742.56;6060853;28;103290;-61
2022/04/05 05:02:57;;;;;;;24.87;22.97;;;;;;;22.56;37.02;94743.81;6062495;28;104249;-61
2022/04/05 05:05:59;;;;;;;28.07;26.17;;;;;;;22.61;38.63;94754.34;6062641;28;103360;-62
2022/04/05 05:09:01;;;;;;;33.80;31.53;;;;;;;22.65;38.40;94742.72;6067346;28;103359;-61
2022/04/05 05:12:05;;;;;;;36.10;33.67;;;;;;;22.70;37.32;94750.59;6085268;28;105471;-58
2022/04/05 05:15:16;;;;;;;26.60;24.60;;;;;;;22.75;35.45;94756.84;6054618;28;103302;-60
2022/04/05 05:18:18;;;;;;;24.87;23.07;;;;;;;22.72;35.17;94754.81;6097072;28;104082;-61
2022/04/05 05:21:20;;;;;;;26.70;24.67;;;;;;;22.68;35.27;94752.78;6117383;28;103216;-60
2022/04/05 05:24:22;;;;;;;26.90;24.90;;;;;;;22.70;35.29;94760.47;6118049;28;103196;-59
2022/04/05 05:27:24;;;;;;;27.00;25.03;;;;;;;22.73;35.37;94764.38;6111993;28;104179;-59
2022/04/05 05:30:26;;;;;;;27.13;24.87;;;;;;;22.70;34.78;94761.25;6118285;28;102985;-59
2022/04/05 05:33:28;;;;;;;26.80;24.90;;;;;;;22.66;35.02;94770.97;6099706;28;102953;-59
2022/04/05 05:36:30;;;;;;;26.47;24.50;;;;;;;22.63;34.83;94766.25;6117356;28;103160;-59
2022/04/05 05:39:33;;;;;;;27.23;24.90;;;;;;;22.64;34.36;94773.16;6111382;28;103192;-60
2022/04/05 05:42:34;;;;;;;25.63;23.70;;;;;;;22.61;34.52;94771.13;6116986;28;103725;-60
2022/04/05 05:45:36;;;;;;;24.80;23.20;;;;;;;22.66;34.53;94776.31;6117139;28;103338;-61
2022/04/05 05:48:39;;;;;;;25.23;23.50;;;;;;;22.68;34.37;94774.13;6112186;28;103936;-60
2022/04/05 05:51:41;;;;;;;22.97;21.17;;;;;;;22.76;34.52;94777.09;6100301;28;103635;-60
2022/04/05 05:54:43;;;;;;;19.93;18.43;;;;;;;22.84;32.75;94770.94;6117948;28;103465;-59
2022/04/05 05:57:45;;;;;;;20.57;18.60;;;;;;;22.98;33.96;94766.22;6117199;28;103989;-60
2022/04/05 06:00:46;;;;;;;20.93;19.00;;;;;;;23.08;33.76;94768.53;6112309;28;103904;-61
2022/04/05 06:03:48;;;;;;;21.43;19.30;;;;;;;23.17;34.08;94766.63;6116972;28;104299;-59
2022/04/05 06:06:50;;;;;;;20.70;18.53;;;;;;;23.25;33.78;94762.38;6116890;28;103120;-59
2022/04/05 06:09:52;;;;;;;20.10;18.50;;;;;;;23.29;33.71;94764.09;6114367;28;103779;-59
2022/04/05 06:12:57;;;;;;;21.10;19.00;;;;;;;23.36;33.84;94760.19;6114179;28;104034;-60
2022/04/05 06:15:59;;;;;;;22.10;20.50;;;;;;;23.38;33.88;94757.97;6115335;28;103972;-60
2022/04/05 06:19:01;;;;;;;23.47;21.57;;;;;;;23.46;33.59;94757.91;6092936;28;103187;-60
2022/04/05 06:22:03;;;;;;;23.27;21.27;;;;;;;23.51;33.81;94762.28;6084715;28;103891;-59
2022/04/05 06:25:05;;;;;;;23.83;21.83;;;;;;;23.52;33.40;94755.84;6088911;28;103420;-60
2022/04/05 06:28:09;;;;;;;23.83;21.93;;;;;;;23.60;33.36;94753.13;6089326;28;103015;-60
2022/04/05 06:31:11;;;;;;;22.70;20.80;;;;;;;23.64;33.73;94755.16;6072448;28;103491;-59
2022/04/05 06:34:12;;;;;;;23.20;21.20;;;;;;;23.74;33.44;94760.13;6083630;28;104073;-60
2022/04/05 06:37:14;;;;;;;22.63;20.80;;;;;;;23.79;33.53;94752.72;6089269;28;103918;-59
2022/04/05 06:40:16;;;;;;;22.70;20.60;;;;;;;23.80;33.48;94756.94;6087566;28;103094;-59
2022/04/05 06:43:23;;;;;;;21.57;19.77;;;;;;;23.84;33.23;94749.84;6084497;28;104293;-60
2022/04/05 06:46:25;;;;;;;20.63;18.43;;;;;;;23.86;33.64;94753.00;6089039;28;103173;-60
2022/04/05 06:49:27;;;;;;;20.77;19.03;;;;;;;23.85;33.52;94753.31;6088884;28;104327;-59
2022/04/05 06:52:29;;;;;;;19.77;18.13;;;;;;;23.86;33.07;94750.34;6088766;28;103216;-60
2022/04/05 06:55:31;;;;;;;19.60;18.00;;;;;;;23.88;33.23;94745.44;6082313;28;103250;-59
2022/04/05 06:58:32;;;;;;;18.80;17.30;;;;;;;23.86;33.49;94747.66;6088470;28;104026;-60
2022/04/05 07:01:35;;;;;;;18.90;17.40;;;;;;;23.88;32.91;94745.44;6088413;28;103850;-60
2022/04/05 07:04:37;;;;;;;19.90;18.23;;;;;;;23.84;32.97;94749.84;6088279;28;103565;-60
2022/04/05 07:07:39;;;;;;;18.17;16.50;;;;;;;23.87;32.58;94743.88;6082870;28;103357;-61
2022/04/05 07:10:41;;;;;;;19.97;17.17;;;;;;;23.90;32.97;94745.91;6086326;28;104328;-62
2022/04/05 07:13:43;;;;;;;17.20;15.80;;;;;;;23.94;32.49;94743.34;6087843;28;103002;-60
2022/04/05 07:16:44;;;;;;;16.13;14.47;;;;;;;23.94;32.40;94738.00;6083968;28;103299;-61
2022/04/05 07:19:46;;;;;;;15.47;14.17;;;;;;;24.02;32.09;94744.41;6111822;28;104178;-61
2022/04/05 07:22:49;;;;;;;14.77;13.50;;;;;;;24.00;32.42;94738.63;6111846;28;103362;-60
2022/04/05 07:25:51;;;;;;;14.47;13.27;;;;;;;24.05;32.39;94743.78;6083574;28;103249;-60
2022/04/05 07:28:53;;;;;;;15.00;13.70;;;;;;;24.05;32.30;94739.22;6056755;28;103685;-61
2022/04/05 07:32:00;;;;;;;14.93;13.73;;;;;;;24.03;32.17;94736.09;6064431;28;103540;-60
2022/04/05 07:35:02;;;;;;;15.07;13.50;;;;;;;24.07;32.13;94731.66;6064760;28;103016;-60
2022/04/05 07:38:04;;;;;;;15.47;13.73;;;;;;;24.10;32.30;94735.56;6060474;28;103058;-60
2022/04/05 07:41:06;;;;;;;14.07;13.00;;;;;;;24.12;31.56;94738.69;6063292;28;103166;-59
2022/04/05 07:44:08;;;;;;;14.20;13.00;;;;;;;24.15;32.14;94740.72;6065146;28;104112;-60
2022/04/05 07:47:09;;;;;;;14.17;12.77;;;;;;;24.18;32.01;94737.38;6064174;28;103184;-60
2022/04/05 07:50:11;;;;;;;14.07;12.87;;;;;;;24.19;32.09;94733.59;6059590;28;105409;-60
2022/04/05 07:53:13;;;;;;;13.20;12.00;;;;;;;24.23;32.08;94737.22;6064926;28;103418;-59
2022/04/05 07:56:15;;;;;;;13.80;12.60;;;;;;;24.30;32.16;94734.78;6064385;28;103154;-59
2022/04/05 07:59:17;;;;;;;13.43;12.23;;;;;;;24.33;32.04;94733.34;6065118;28;104026;-59
2022/04/05 08:02:19;;;;;;;13.73;12.43;;;;;;;24.33;31.99;94728.78;6059501;28;103445;-60
2022/04/05 08:05:34;;;;;;;12.50;11.47;;;;;;;24.31;32.00;94728.31;6061873;28;103203;-60
2022/04/05 08:08:36;;;;;;;13.47;12.27;;;;;;;24.30;32.00;94728.66;6062861;28;103183;-61
2022/04/05 08:11:57;;;;;;;13.63;12.27;;;;;;;24.34;31.91;94722.31;6056425;28;105619;-60
2022/04/05 08:14:59;;;;;;;12.73;11.63;;;;;;;24.42;32.06;94721.47;6046674;28;104010;-60
2022/04/05 08:18:01;;;;;;;12.80;11.70;;;;;;;24.43;32.28;94723.03;6086193;28;103169;-59
2022/04/05 08:21:03;;;;;;;12.87;11.67;;;;;;;24.41;32.39;94721.81;6079513;28;106303;-60
2022/04/05 08:24:05;;;;;;;13.23;12.03;;;;;;;24.37;31.97;94719.00;6082122;28;102745;-59
2022/04/05 08:27:07;;;;;;;13.20;11.90;;;;;;;24.36;32.46;94713.97;6110141;28;104110;-59
2022/04/05 08:30:12;;;;;;;14.00;12.70;;;;;;;24.32;32.40;94711.16;6077242;28;104530;-61
2022/04/05 08:33:14;;;;;;;12.47;11.20;;;;;;;24.36;32.64;94709.41;6087728;28;103336;-60
2022/04/05 08:36:16;;;;;;;12.33;11.13;;;;;;;24.37;32.57;94700.28;6071417;28;103196;-62
2022/04/05 08:39:18;;;;;;;13.80;10.67;;;;;;;24.41;32.43;94695.84;6068407;28;103321;-61
2022/04/05 08:42:20;;;;;;;13.27;11.83;;;;;;;24.41;32.37;94695.84;6093625;28;103543;-61
2022/04/05 08:45:23;;;;;;;12.40;11.30;;;;;;;24.43;32.70;94696.28;6078322;28;104011;-61
2022/04/05 08:48:27;;;;;;;14.20;12.77;;;;;;;24.41;32.48;94690.47;6105870;28;103322;-61
2022/04/05 08:51:30;;;;;;;14.50;13.20;;;;;;;24.39;32.68;94684.69;6092752;28;103616;-60
2022/04/05 08:54:32;;;;;;;15.53;14.23;;;;;;;24.35;32.22;94681.09;6095013;28;103024;-61
2022/04/05 08:57:34;;;;;;;16.97;15.43;;;;;;;24.33;32.43;94663.81;6100773;28;105786;-61
2022/04/05 09:00:35;;;;;;;18.20;16.70;;;;;;;24.31;32.07;94669.50;6062813;28;103032;-60
2022/04/05 09:03:37;;;;;;;18.80;17.10;;;;;;;24.31;32.20;94669.50;6062519;28;103655;-60
2022/04/05 09:06:39;;;;;;;18.33;16.73;;;;;;;24.30;32.33;94664.47;6057372;28;102734;-63
2022/04/05 09:09:41;;;;;;;20.60;18.60;;;;;;;24.30;32.19;94664.47;6066008;28;104229;-60
2022/04/05 09:12:45;;;;;;;21.00;19.00;;;;;;;24.29;32.04;94657.56;6109069;28;103061;-60
2022/04/05 09:15:51;;;;;;;22.90;20.77;;;;;;;24.27;31.82;94660.56;6109082;28;103333;-60
2022/04/05 09:18:52;;;;;;;22.17;20.37;;;;;;;24.27;32.02;94652.53;6087497;28;103388;-61
2022/04/05 09:21:57;;;;;;;24.20;22.17;;;;;;;24.25;31.70;94657.44;6109258;28;102970;-60
2022/04/05 09:25:11;;;;;;;25.33;22.93;;;;;;;24.23;32.17;94648.97;6109293;28;103092;-61
2022/04/05 09:28:29;;;;;;;24.90;22.80;;;;;;;24.22;32.38;94646.63;6104627;28;104015;-62
2022/04/05 09:31:43;;;;;;;22.37;20.47;;;;;;;24.19;32.45;94650.72;6109729;28;103382;-61
2022/04/05 09:34:50;;;;;;;23.83;21.27;;;;;;;24.17;32.29;94643.03;6110731;28;104006;-62
2022/04/05 09:37:52;;;;;;;24.20;22.10;;;;;;;24.16;32.33;94643.34;6092235;28;103159;-64
2022/04/05 09:40:53;;;;;;;24.43;22.33;;;;;;;24.16;32.34;94640.69;6103922;28;105534;-64
2022/04/05 09:44:04;;;;;;;22.13;19.80;;;;;;;24.13;32.38;94633.31;6108495;28;104139;-63
2022/04/05 09:47:14;;;;;;;22.60;20.60;;;;;;;24.16;32.65;94635.34;6099834;28;103314;-63
2022/04/05 09:50:16;;;;;;;23.33;21.23;;;;;;;24.15;33.11;94634.56;6064059;28;106054;-63
2022/04/05 09:53:18;;;;;;;23.90;21.70;;;;;;;24.19;32.82;94622.13;6088537;28;104043;-64
2022/04/05 09:56:25;;;;;;;25.60;21.93;;;;;;;24.25;33.30;94625.34;6089816;28;102873;-62
2022/04/05 09:59:40;;;;;;;25.77;23.43;;;;;;;24.23;33.56;94621.44;6088986;28;103941;-62
2022/04/05 10:03:09;;;;;;;26.70;24.10;;;;;;;24.24;33.75;94612.31;6084569;28;103157;-64
2022/04/05 10:06:10;;;;;;;26.33;24.03;;;;;;;24.21;33.57;94613.75;6087568;28;104123;-64
2022/04/05 10:09:18;;;;;;;27.67;25.27;;;;;;;24.22;33.83;94609.97;6092909;28;103091;-66
2022/04/05 10:12:21;;;;;;;29.43;26.77;;;;;;;24.19;33.71;94606.06;6104234;28;103570;-65
2022/04/05 10:15:25;;;;;;;28.80;26.40;;;;;;;24.17;33.79;94594.13;6099762;28;103860;-62
2022/04/05 10:18:33;;;;;;;28.80;26.50;;;;;;;24.16;33.91;94589.88;6088775;28;104534;-62
2022/04/05 10:21:37;;;;;;;30.83;28.27;;;;;;;24.16;34.09;94595.22;6089337;28;104027;-62
2022/04/05 10:24:39;;;;;;;29.83;27.43;;;;;;;24.16;33.76;94595.22;6083500;28;103543;-68
2022/04/05 10:27:41;;;;;;;30.23;27.40;;;;;;;24.14;33.93;94582.19;6102642;28;103038;-65
2022/04/05 10:30:49;;;;;;;30.67;27.87;;;;;;;24.15;34.40;94582.97;6113108;28;102987;-67
2022/04/05 10:34:28;;;;;;;29.40;26.70;;;;;;;24.08;33.81;94580.06;6096257;28;104051;-64
2022/04/05 10:37:29;;;;;;;30.47;27.83;;;;;;;23.98;34.05;94567.06;6085305;28;104127;-63
2022/04/05 10:40:31;;;;;;;30.77;27.67;;;;;;;23.89;33.98;94567.94;6085795;28;104168;-63
2022/04/05 10:43:33;;;;;;;31.90;29.23;;;;;;;23.86;33.74;94565.94;6099703;28;103301;-64
2022/04/05 10:46:40;;;;;;;31.87;29.27;;;;;;;23.84;33.64;94562.78;6103515;28;103252;-64
2022/04/05 10:50:16;;;;;;;32.90;30.00;;;;;;;23.79;33.68;94557.66;6075492;28;103216;-63
2022/04/05 10:53:29;;;;;;;34.07;31.10;;;;;;;23.75;33.32;94550.63;6080637;28;104981;-63
2022/04/05 10:56:31;;;;;;;35.80;32.57;;;;;;;23.69;33.27;94538.56;6075023;28;104052;-62
2022/04/05 10:59:51;;;;;;;36.00;32.80;;;;;;;23.70;33.18;94546.28;6075113;28;103579;-63
2022/04/05 11:02:52;;;;;;;36.47;33.33;;;;;;;23.69;33.16;94536.72;6077728;28;104139;-64
2022/04/05 11:06:03;;;;;;;38.80;35.30;;;;;;;23.68;33.09;94537.78;6063325;28;104167;-63
2022/04/05 11:09:24;;;;;;;37.77;34.57;;;;;;;23.67;32.81;94535.44;6081045;28;103627;-64
2022/04/05 11:12:30;;;;;;;36.40;33.40;;;;;;;23.66;32.85;94534.66;6101661;28;103055;-63
2022/04/05 11:15:42;;;;;;;36.73;33.63;;;;;;;23.64;32.94;94526.19;6074564;28;103700;-63
2022/04/05 11:18:45;;;;;;;38.83;35.53;;;;;;;23.62;32.98;94516.97;6110772;28;104235;-63
2022/04/05 11:22:00;;;;;;;39.97;36.67;;;;;;;23.62;32.93;94522.31;6083501;28;103957;-63
2022/04/05 11:25:28;;;;;;;39.53;36.40;;;;;;;23.60;32.57;94519.97;6105728;28;103358;-63
2022/04/05 11:28:45;;;;;;;39.17;35.77;;;;;;;23.57;32.70;94508.03;6082735;28;104212;-63
2022/04/05 11:32:06;;;;;;;34.73;31.43;;;;;;;23.51;32.12;94505.88;6098123;28;103656;-62
2022/04/05 11:35:25;;;;;;;29.03;26.40;;;;;;;23.48;30.52;94493.19;6087528;28;103925;-61
2022/04/05 11:38:28;;;;;;;22.87;20.90;;;;;;;23.45;30.07;94493.84;6110935;28;102910;-63
2022/04/05 11:41:31;;;;;;;21.97;18.57;;;;;;;23.41;29.71;94482.28;6089210;28;104314;-63
2022/04/05 11:44:33;;;;;;;19.70;17.90;;;;;;;23.43;29.26;94493.41;6082366;28;105135;-62
2022/04/05 11:47:35;;;;;;;17.40;16.00;;;;;;;23.41;29.64;94487.63;6086769;28;103216;-62
2022/04/05 11:50:37;;;;;;;15.00;13.80;;;;;;;23.40;29.23;94486.06;6100320;28;103875;-62
2022/04/05 11:53:40;;;;;;;13.13;12.03;;;;;;;23.39;27.88;94473.81;6107303;28;103562;-62
2022/04/05 11:56:42;;;;;;;11.63;10.53;;;;;;;23.35;26.88;94476.34;6105379;28;102701;-62
2022/04/05 11:59:44;;;;;;;10.83;9.93;;;;;;;23.37;27.38;94468.03;6110941;28;103278;-62
2022/04/05 12:03:01;;;;;;;10.27;9.47;;;;;;;23.38;27.08;94453.56;6110018;28;103938;-62
2022/04/05 12:06:03;;;;;;;9.93;8.93;;;;;;;23.39;27.28;94455.13;6105516;28;104243;-62
2022/04/05 12:09:07;;;;;;;10.00;9.23;;;;;;;23.38;27.39;94450.88;6109351;28;103341;-62
2022/04/05 12:12:10;;;;;;;9.97;9.07;;;;;;;23.37;27.18;94447.44;6109720;28;102909;-63
2022/04/05 12:15:16;;;;;;;10.70;9.70;;;;;;;23.38;27.76;94442.88;6109260;28;104171;-62
2022/04/05 12:18:20;;;;;;;9.27;8.33;;;;;;;23.38;26.99;94437.53;6104657;28;104778;-62
2022/04/05 12:21:24;;;;;;;9.80;8.97;;;;;;;23.37;27.43;94428.75;6091658;28;103321;-62
2022/04/05 12:24:27;;;;;;;8.50;7.80;;;;;;;23.36;27.46;94434.41;6081013;28;103180;-62
2022/04/05 12:27:31;;;;;;;7.87;7.27;;;;;;;23.35;27.13;94424.81;6062006;28;103388;-62
2022/04/05 12:30:33;;;;;;;7.93;7.33;;;;;;;23.29;26.81;94425.03;6056966;28;103269;-62
2022/04/05 12:33:36;;;;;;;8.93;8.10;;;;;;;23.27;26.71;94418.44;6062084;28;103909;-63
2022/04/05 12:36:43;;;;;;;11.77;9.00;;;;;;;23.35;27.45;94416.81;6062480;28;102942;-63
2022/04/05 12:39:48;;;;;;;13.00;11.70;;;;;;;23.37;28.22;94418.06;6057748;28;104298;-62
2022/04/05 12:42:50;;;;;;;12.13;10.90;;;;;;;23.37;28.52;94409.28;6062504;28;103293;-62
2022/04/05 12:45:52;;;;;;;12.67;11.40;;;;;;;23.40;29.09;94404.06;6062414;28;103417;-61
2022/04/05 12:48:53;;;;;;;12.87;11.67;;;;;;;23.42;28.89;94403.72;6062069;28;103601;-61
2022/04/05 12:52:25;;;;;;;13.73;12.30;;;;;;;23.43;29.39;94405.28;6055825;28;103198;-61
2022/04/05 12:55:27;;;;;;;15.27;13.30;;;;;;;23.42;29.27;94390.38;6061509;28;103283;-61
2022/04/05 12:58:40;;;;;;;14.57;12.97;;;;;;;23.42;29.44;94390.38;6062675;28;104443;-61
2022/04/05 13:01:42;;;;;;;16.50;14.57;;;;;;;23.44;30.00;94393.50;6061245;28;103330;-61
2022/04/05 13:04:44;;;;;;;15.07;13.73;;;;;;;23.44;30.45;94390.81;6056886;28;103220;-65
2022/04/05 13:07:51;;;;;;;16.73;14.93;;;;;;;23.45;31.72;94384.38;6061859;28;103486;-63
2022/04/05 13:10:53;;;;;;;19.97;17.93;;;;;;;23.44;32.14;94380.91;6061324;28;104392;-61
2022/04/05 13:14:22;;;;;;;21.50;19.50;;;;;;;23.43;32.40;94383.91;6057396;28;103452;-61
2022/04/05 13:17:29;;;;;;;19.40;17.40;;;;;;;23.43;32.09;94371.34;6059691;28;103309;-61
2022/04/05 13:20:31;;;;;;;20.20;18.20;;;;;;;23.43;32.03;94378.59;6061701;28;103073;-61
2022/04/05 13:23:36;;;;;;;17.33;15.63;;;;;;;23.42;31.89;94383.16;6058906;28;103106;-61
2022/04/05 13:26:44;;;;;;;17.60;15.87;;;;;;;23.41;31.38;94380.81;6079555;28;103203;-62
2022/04/05 13:29:46;;;;;;;18.63;16.73;;;;;;;23.41;31.60;94378.91;6090066;28;103457;-62
2022/04/05 13:33:05;;;;;;;18.73;16.97;;;;;;;23.40;31.91;94373.91;6075020;28;104015;-62
2022/04/05 13:36:08;;;;;;;19.10;17.30;;;;;;;23.39;32.28;94370.47;6112033;28;103208;-61
2022/04/05 13:39:11;;;;;;;18.57;16.77;;;;;;;23.38;33.04;94358.22;6093325;28;104186;-61
2022/04/05 13:42:14;;;;;;;18.50;16.70;;;;;;;23.39;32.91;94351.78;6088980;28;103914;-61
2022/04/05 13:45:16;;;;;;;20.17;18.37;;;;;;;23.39;33.60;94353.66;6079748;28;104038;-62
2022/04/05 13:48:18;;;;;;;21.93;19.83;;;;;;;23.36;33.63;94357.00;6077918;28;104603;-62
2022/04/05 13:51:20;;;;;;;21.37;19.17;;;;;;;23.38;33.53;94357.44;6089236;28;103215;-62
2022/04/05 13:54:39;;;;;;;21.07;19.27;;;;;;;23.38;33.52;94357.44;6074413;28;104115;-62
2022/04/05 13:57:41;;;;;;;22.40;20.30;;;;;;;23.33;34.08;94349.63;6087864;28;102975;-62
2022/04/05 14:00:43;;;;;;;20.80;18.80;;;;;;;23.38;33.06;94352.09;6084596;28;103650;-62